| time (UTC) | temp F | wind direction | speed MPH | gust MPH | rain 1hr in | rain 24hr in | rain mn in | humidity % | barometer mb |
| 20260905232817 | 49 | 102 | 0.0 | 2.0 | 0.01 | 0.07 | 0.07 | 89 | 1020.6 |
| 20260905232506 | 48 | 102 | 0.0 | 2.0 | 0.02 | 0.07 | 0.07 | 91 | 1019.3 |
| 20260905232311 | 49 | 102 | 0.0 | 2.0 | 0.02 | 0.07 | 0.07 | 92 | 1020.7 |
| 20260905232006 | 48 | 102 | 0.0 | 3.0 | 0.02 | 0.07 | 0.07 | 91 | 1019.3 |
| 20260905231809 | 48 | 102 | 0.0 | 3.0 | 0.02 | 0.07 | 0.07 | 92 | 1020.6 |
| 20260905231523 | 48 | 102 | 0.0 | 3.0 | 0.02 | 0.07 | 0.07 | 91 | 1019.3 |
| 20260905231309 | 48 | 102 | 1.0 | 3.0 | 0.03 | 0.07 | 0.07 | 92 | 1020.7 |
| 20260905231011 | 47 | 102 | 0.0 | 4.0 | 0.03 | 0.07 | 0.07 | 91 | 1019.4 |
| 20260905230809 | 48 | 102 | 1.0 | 4.0 | 0.03 | 0.07 | 0.07 | 91 | 1020.7 |
| 20260905230507 | 47 | 102 | 1.0 | 4.0 | 0.04 | 0.07 | 0.07 | 91 | 1019.4 |
| 20260905230308 | 47 | 102 | 1.0 | 4.0 | 0.06 | 0.07 | 0.07 | 91 | 1020.8 |
| 20260905230012 | 47 | 101 | 0.0 | 4.0 | 0.07 | 0.07 | 0.07 | 90 | 1019.5 |
| 20260905225809 | 47 | 101 | 0.0 | 4.0 | 0.07 | 0.07 | 0.07 | 90 | 1020.7 |
| 20260905225509 | 47 | 111 | 0.0 | 1.0 | 0.07 | 0.07 | 0.07 | 89 | 1019.4 |
| 20260905225309 | 47 | 111 | 0.0 | 1.0 | 0.07 | 0.07 | 0.07 | 89 | 1020.7 |
| 20260905225013 | 47 | 111 | 0.0 | 3.0 | 0.07 | 0.07 | 0.07 | 89 | 1019.5 |
| 20260905224809 | 47 | 111 | 0.0 | 3.0 | 0.06 | 0.06 | 0.07 | 89 | 1020.8 |
| 20260905224540 | 47 | 111 | 0.0 | 3.0 | 0.06 | 0.06 | 0.06 | 88 | 1019.6 |
| 20260905224309 | 47 | 111 | 2.0 | 6.0 | 0.06 | 0.06 | 0.06 | 87 | 1021.1 |
| 20260905224040 | 47 | 127 | 3.0 | 7.0 | 0.06 | 0.06 | 0.06 | 88 | 1021.1 |
| 20260905224009 | 47 | 115 | 0.0 | 7.0 | 0.06 | 0.06 | 0.06 | 88 | 1019.7 |
| 20260905223513 | 47 | 123 | 3.0 | 7.0 | 0.06 | 0.06 | 0.06 | 87 | 1019.8 |
| 20260905223309 | 47 | 107 | 4.0 | 8.0 | 0.06 | 0.06 | 0.06 | 87 | 1021.2 |
| 20260905223038 | 47 | 114 | 3.0 | 10.0 | 0.06 | 0.06 | 0.06 | 86 | 1019.9 |
| 20260905222809 | 48 | 107 | 3.0 | 10.0 | 0.06 | 0.06 | 0.06 | 87 | 1021.2 |
| 20260905222506 | 48 | 107 | 2.0 | 10.0 | 0.05 | 0.05 | 0.05 | 86 | 1019.9 |
| 20260905222309 | 48 | 84 | 2.0 | 10.0 | 0.05 | 0.05 | 0.05 | 85 | 1021.4 |
| 20260905222009 | 48 | 100 | 0.0 | 4.0 | 0.05 | 0.05 | 0.05 | 83 | 1019.9 |
| 20260905221808 | 49 | 93 | 0.0 | 1.0 | 0.05 | 0.05 | 0.05 | 83 | 1021.3 |
| 20260905221529 | 49 | 93 | 0.0 | 2.0 | 0.05 | 0.05 | 0.05 | 81 | 1020.0 |
| 20260905221309 | 49 | 93 | 0.0 | 2.0 | 0.04 | 0.04 | 0.04 | 80 | 1021.5 |
| 20260905221003 | 49 | 93 | 0.0 | 10.0 | 0.04 | 0.04 | 0.04 | 78 | 1020.1 |
| 20260905220808 | 50 | 93 | 4.0 | 12.0 | 0.04 | 0.04 | 0.04 | 79 | 1021.5 |
| 20260905220507 | 50 | 93 | 0.0 | 19.0 | 0.03 | 0.03 | 0.03 | 78 | 1020.3 |
| 20260905220309 | 50 | 88 | 9.0 | 23.0 | 0.01 | 0.01 | 0.02 | 78 | 1021.7 |
| 20260905220019 | 50 | 143 | 8.0 | 23.0 | 0.00 | 0.00 | 0.00 | 75 | 1020.3 |
| 20260905215806 | 51 | 107 | 5.0 | 23.0 | 0.00 | 0.00 | 0.00 | 74 | 1021.4 |
| 20260905215510 | 51 | 101 | 9.0 | 23.0 | 0.00 | 0.00 | 0.00 | 68 | 1020.1 |
| 20260905215307 | 52 | 109 | 1.0 | 7.0 | 0.00 | 0.00 | 0.00 | 67 | 1021.4 |
| 20260905215012 | 51 | 281 | 0.0 | 2.0 | 0.00 | 0.00 | 0.00 | 64 | 1020.0 |
| 20260905214807 | 52 | 281 | 1.0 | 2.0 | 0.00 | 0.00 | 0.00 | 62 | 1021.3 |
| 20260905214519 | 51 | 294 | 0.0 | 6.0 | 0.00 | 0.00 | 0.00 | 62 | 1019.9 |
| 20260905214307 | 52 | 294 | 1.0 | 6.0 | 0.00 | 0.00 | 0.00 | 61 | 1021.2 |
| 20260905214011 | 51 | 295 | 0.0 | 6.0 | 0.00 | 0.00 | 0.00 | 63 | 1019.8 |
| 20260905213515 | 51 | 281 | 1.0 | 3.0 | 0.00 | 0.00 | 0.00 | 65 | 1019.8 |
| 20260905213307 | 51 | 149 | 0.0 | 0.0 | 0.00 | 0.00 | 0.00 | 70 | 1021.1 |
| 20260905213020 | 51 | 149 | 0.0 | 0.0 | 0.00 | 0.00 | 0.00 | 69 | 1019.9 |
| 20260905212807 | 51 | 157 | 0.0 | 0.0 | 0.00 | 0.00 | 0.00 | 71 | 1021.2 |
| 20260905212512 | 50 | 236 | 0.0 | 0.0 | 0.00 | 0.00 | 0.00 | 70 | 1019.8 |
| 20260905212307 | 50 | 236 | 0.0 | 0.0 | 0.00 | 0.00 | 0.00 | 69 | 1021.2 |
| 20260905212017 | 50 | 236 | 0.0 | 0.0 | 0.00 | 0.00 | 0.00 | 68 | 1019.8 |
| 20260905211806 | 50 | 236 | 0.0 | 0.0 | 0.00 | 0.00 | 0.00 | 68 | 1021.1 |
| 20260905211539 | 50 | 236 | 0.0 | 0.0 | 0.00 | 0.00 | 0.00 | 67 | 1019.7 |
| 20260905211307 | 50 | 236 | 0.0 | 0.0 | 0.00 | 0.00 | 0.00 | 68 | 1021.1 |
| 20260905211007 | 50 | 236 | 0.0 | 0.0 | 0.00 | 0.00 | 0.00 | 67 | 1019.8 |
| 20260905210806 | 50 | 236 | 0.0 | 0.0 | 0.00 | 0.00 | 0.00 | 68 | 1021.2 |
| 20260905210514 | 50 | 236 | 0.0 | 0.0 | 0.00 | 0.00 | 0.00 | 68 | 1019.9 |
| 20260905210305 | 50 | 236 | 0.0 | 0.0 | 0.00 | 0.00 | 0.00 | 68 | 1021.2 |
| 20260905210035 | 50 | 236 | 0.0 | 0.0 | 0.00 | 0.00 | 0.00 | 67 | 1019.8 |
| 20260905205757 | 50 | 236 | 0.0 | 0.0 | 0.00 | 0.00 | 0.00 | 67 | 1021.1 |
| 20260905205507 | 50 | 236 | 0.0 | 0.0 | 0.00 | 0.00 | 0.00 | 67 | 1019.7 |
| 20260905205252 | 50 | 236 | 0.0 | 0.0 | 0.00 | 0.00 | 0.00 | 66 | 1021.1 |
| 20260905205008 | 50 | 236 | 0.0 | 0.0 | 0.00 | 0.00 | 0.00 | 66 | 1019.7 |
| 20260905204747 | 51 | 236 | 0.0 | 2.0 | 0.00 | 0.00 | 0.00 | 68 | 1021.1 |
| 20260905204524 | 50 | 236 | 0.0 | 2.0 | 0.00 | 0.00 | 0.00 | 68 | 1019.8 |
| 20260905204239 | 51 | 236 | 1.0 | 4.0 | 0.00 | 0.00 | 0.00 | 68 | 1021.1 |
| 20260905204008 | 50 | 236 | 0.0 | 4.0 | 0.00 | 0.00 | 0.00 | 67 | 1019.8 |
| 20260905203956 | 51 | 236 | 1.0 | 4.0 | 0.00 | 0.00 | 0.00 | 67 | 1021.1 |
| 20260905203508 | 50 | 236 | 1.0 | 4.0 | 0.00 | 0.00 | 0.00 | 66 | 1019.7 |
| 20260905203047 | 51 | 157 | 0.0 | 2.0 | 0.00 | 0.00 | 0.00 | 66 | 1019.7 |
| 20260905202722 | 51 | 124 | 0.0 | 0.0 | 0.00 | 0.00 | 0.00 | 65 | 1021.1 |
| 20260905202516 | 51 | 124 | 0.0 | 0.0 | 0.00 | 0.00 | 0.00 | 70 | 1019.7 |
| 20260905202216 | 52 | 115 | 0.0 | 0.0 | 0.00 | 0.00 | 0.00 | 69 | 1021.1 |
| 20260905202012 | 51 | 115 | 0.0 | 0.0 | 0.00 | 0.00 | 0.00 | 68 | 1019.7 |
| 20260905201710 | 52 | 115 | 0.0 | 1.0 | 0.00 | 0.00 | 0.00 | 67 | 1021.1 |
| 20260905201548 | 51 | 115 | 0.0 | 1.0 | 0.00 | 0.00 | 0.00 | 66 | 1019.7 |
| 20260905201204 | 52 | 115 | 1.0 | 4.0 | 0.00 | 0.00 | 0.00 | 69 | 1021.1 |
| 20260905201016 | 51 | 115 | 0.0 | 10.0 | 0.00 | 0.00 | 0.00 | 70 | 1019.8 |
| 20260905200700 | 52 | 115 | 4.0 | 14.0 | 0.00 | 0.00 | 0.00 | 65 | 1021.1 |
| 20260905200516 | 52 | 115 | 0.0 | 14.0 | 0.00 | 0.00 | 0.00 | 66 | 1019.8 |
| 20260905200200 | 52 | 113 | 6.0 | 14.0 | 0.00 | 0.00 | 0.00 | 64 | 1021.2 |
| 20260905200019 | 52 | 106 | 8.0 | 14.0 | 0.00 | 0.00 | 0.00 | 62 | 1019.9 |
| 20260905195701 | 53 | 111 | 6.0 | 13.0 | 0.00 | 0.00 | 0.00 | 59 | 1021.2 |
| 20260905195512 | 52 | 82 | 3.0 | 13.0 | 0.00 | 0.00 | 0.00 | 62 | 1019.9 |
| 20260905195200 | 53 | 106 | 8.0 | 12.0 | 0.00 | 0.00 | 0.00 | 64 | 1021.3 |
| 20260905195016 | 52 | 110 | 7.0 | 12.0 | 0.00 | 0.00 | 0.00 | 62 | 1019.9 |
| 20260905194931 | 53 | 105 | 6.0 | 12.0 | 0.00 | 0.00 | 0.00 | 64 | 1021.2 |
| 20260905194536 | 52 | 86 | 7.0 | 12.0 | 0.00 | 0.00 | 0.00 | 64 | 1019.8 |
| 20260905194201 | 52 | 101 | 3.0 | 12.0 | 0.00 | 0.00 | 0.00 | 67 | 1021.3 |
| 20260905194013 | 51 | 124 | 5.0 | 12.0 | 0.00 | 0.00 | 0.00 | 71 | 1019.9 |
| 20260905193700 | 51 | 113 | 1.0 | 4.0 | 0.00 | 0.00 | 0.00 | 71 | 1021.3 |
| 20260905193512 | 51 | 263 | 0.0 | 3.0 | 0.00 | 0.00 | 0.00 | 72 | 1019.8 |
| 20260905193426 | 51 | 274 | 1.0 | 3.0 | 0.00 | 0.00 | 0.00 | 72 | 1021.2 |
| 20260905193023 | 51 | 282 | 0.0 | 4.0 | 0.00 | 0.00 | 0.00 | 71 | 1019.8 |
| 20260905192701 | 51 | 282 | 1.0 | 4.0 | 0.00 | 0.00 | 0.00 | 72 | 1021.1 |
| 20260905192516 | 50 | 281 | 1.0 | 4.0 | 0.00 | 0.00 | 0.00 | 71 | 1019.8 |
| 20260905192201 | 51 | 281 | 1.0 | 4.0 | 0.00 | 0.00 | 0.00 | 71 | 1021.2 |
| 20260905192012 | 50 | 286 | 0.0 | 2.0 | 0.00 | 0.00 | 0.00 | 71 | 1019.8 |
| 20260905191658 | 51 | 258 | 1.0 | 2.0 | 0.00 | 0.00 | 0.00 | 71 | 1021.2 |
| 20260905191529 | 50 | 258 | 1.0 | 3.0 | 0.00 | 0.00 | 0.00 | 72 | 1019.8 |
| 20260905191156 | 51 | 250 | 2.0 | 4.0 | 0.00 | 0.00 | 0.00 | 72 | 1021.2 |
| 20260905191013 | 50 | 250 | 1.0 | 4.0 | 0.00 | 0.00 | 0.00 | 71 | 1019.9 |
| 20260905190657 | 51 | 250 | 2.0 | 4.0 | 0.00 | 0.00 | 0.00 | 72 | 1021.1 |
| 20260905190512 | 50 | 251 | 2.0 | 6.0 | 0.00 | 0.00 | 0.00 | 72 | 1019.8 |
| 20260905190156 | 51 | 245 | 2.0 | 6.0 | 0.00 | 0.00 | 0.00 | 72 | 1021.1 |
| 20260905190031 | 50 | 279 | 1.0 | 6.0 | 0.00 | 0.00 | 0.00 | 72 | 1019.8 |
| 20260905185655 | 51 | 280 | 2.0 | 6.0 | 0.00 | 0.00 | 0.00 | 73 | 1021.1 |
| 20260905185515 | 50 | 276 | 1.0 | 4.0 | 0.00 | 0.00 | 0.00 | 74 | 1019.7 |
| 20260905185152 | 51 | 276 | 2.0 | 4.0 | 0.00 | 0.00 | 0.00 | 76 | 1021.2 |
| 20260905185002 | 50 | 276 | 1.0 | 4.0 | 0.00 | 0.00 | 0.00 | 76 | 1019.8 |
| 20260905184646 | 50 | 276 | 2.0 | 4.0 | 0.00 | 0.00 | 0.00 | 75 | 1021.2 |
| 20260905184503 | 50 | 284 | 2.0 | 4.0 | 0.00 | 0.00 | 0.00 | 75 | 1019.8 |
| 20260905184139 | 50 | 279 | 1.0 | 3.0 | 0.00 | 0.00 | 0.00 | 77 | 1021.2 |
| 20260905184003 | 50 | 279 | 0.0 | 3.0 | 0.00 | 0.00 | 0.00 | 78 | 1019.9 |
| 20260905183856 | 50 | 279 | 0.0 | 3.0 | 0.00 | 0.00 | 0.00 | 76 | 1021.2 |
| 20260905183505 | 50 | 278 | 0.0 | 2.0 | 0.00 | 0.00 | 0.00 | 76 | 1019.9 |
| 20260905183357 | 50 | 278 | 1.0 | 4.0 | 0.00 | 0.00 | 0.00 | 79 | 1021.2 |
| 20260905183003 | 50 | 278 | 0.0 | 4.0 | 0.00 | 0.00 | 0.00 | 79 | 1019.9 |
| 20260905182623 | 50 | 278 | 1.0 | 4.0 | 0.00 | 0.00 | 0.00 | 77 | 1021.2 |
| 20260905182503 | 50 | 278 | 1.0 | 4.0 | 0.00 | 0.00 | 0.00 | 76 | 1019.9 |
| 20260905182115 | 51 | 267 | 0.0 | 1.0 | 0.00 | 0.00 | 0.00 | 74 | 1021.3 |
| 20260905182003 | 50 | 246 | 0.0 | 2.0 | 0.00 | 0.00 | 0.00 | 73 | 1020.0 |
| 20260905181611 | 51 | 246 | 0.0 | 2.0 | 0.00 | 0.00 | 0.00 | 74 | 1021.3 |
| 20260905181504 | 50 | 246 | 0.0 | 2.0 | 0.00 | 0.00 | 0.00 | 72 | 1020.1 |
| 20260905181104 | 51 | 245 | 0.0 | 2.0 | 0.00 | 0.00 | 0.00 | 72 | 1021.4 |
| 20260905181002 | 51 | 244 | 0.0 | 2.0 | 0.00 | 0.00 | 0.00 | 72 | 1020.1 |
| 20260905180559 | 51 | 233 | 0.0 | 0.0 | 0.00 | 0.00 | 0.00 | 71 | 1021.4 |
| 20260905180503 | 51 | 235 | 0.0 | 0.0 | 0.00 | 0.00 | 0.00 | 71 | 1020.1 |
| 20260905180053 | 51 | 234 | 0.0 | 3.0 | 0.00 | 0.00 | 0.00 | 71 | 1021.4 |
| 20260905180006 | 51 | 234 | 0.0 | 3.0 | 0.00 | 0.00 | 0.00 | 70 | 1020.1 |
| 20260905175548 | 51 | 234 | 1.0 | 3.0 | 0.00 | 0.00 | 0.00 | 69 | 1021.3 |
| 20260905175504 | 51 | 234 | 0.0 | 4.0 | 0.00 | 0.00 | 0.00 | 69 | 1020.0 |
| 20260905175040 | 51 | 240 | 2.0 | 4.0 | 0.00 | 0.00 | 0.00 | 69 | 1021.3 |
| 20260905175003 | 51 | 241 | 0.0 | 4.0 | 0.00 | 0.00 | 0.00 | 69 | 1020.0 |
| 20260905174534 | 52 | 244 | 2.0 | 5.0 | 0.00 | 0.00 | 0.00 | 67 | 1021.3 |
| 20260905174509 | 52 | 253 | 2.0 | 5.0 | 0.00 | 0.00 | 0.00 | 66 | 1019.9 |
| 20260905174028 | 53 | 265 | 3.0 | 8.0 | 0.00 | 0.00 | 0.00 | 66 | 1021.3 |
| 20260905174003 | 53 | 284 | 2.0 | 8.0 | 0.00 | 0.00 | 0.00 | 65 | 1019.9 |
| 20260905173522 | 53 | 307 | 3.0 | 8.0 | 0.00 | 0.00 | 0.00 | 66 | 1021.4 |
| 20260905173503 | 53 | 296 | 3.0 | 8.0 | 0.00 | 0.00 | 0.00 | 65 | 1020.0 |
| 20260905173016 | 53 | 240 | 2.0 | 5.0 | 0.00 | 0.00 | 0.00 | 67 | 1021.4 |
| 20260905173006 | 53 | 249 | 1.0 | 5.0 | 0.00 | 0.00 | 0.00 | 67 | 1019.9 |
| 20260905172510 | 52 | 256 | 2.0 | 6.0 | 0.00 | 0.00 | 0.00 | 69 | 1021.3 |
| 20260905172503 | 52 | 256 | 1.0 | 6.0 | 0.00 | 0.00 | 0.00 | 68 | 1019.9 |
| 20260905172004 | 52 | 249 | 2.0 | 5.0 | 0.00 | 0.00 | 0.00 | 68 | 1021.4 |
| 20260905171504 | 51 | 281 | 2.0 | 6.0 | 0.00 | 0.00 | 0.00 | 69 | 1020.0 |
| 20260905171458 | 51 | 281 | 2.0 | 6.0 | 0.00 | 0.00 | 0.00 | 70 | 1021.3 |
| 20260905171002 | 51 | 251 | 1.0 | 6.0 | 0.00 | 0.00 | 0.00 | 69 | 1020.1 |
| 20260905170952 | 51 | 257 | 2.0 | 6.0 | 0.00 | 0.00 | 0.00 | 69 | 1021.4 |
| 20260905170502 | 51 | 312 | 2.0 | 5.0 | 0.00 | 0.00 | 0.00 | 68 | 1020.1 |
| 20260905170446 | 51 | 312 | 2.0 | 5.0 | 0.00 | 0.00 | 0.00 | 68 | 1021.3 |
| 20260905170004 | 51 | 307 | 2.0 | 5.0 | 0.00 | 0.00 | 0.00 | 66 | 1020.1 |
| 20260905165940 | 52 | 322 | 1.0 | 5.0 | 0.00 | 0.00 | 0.00 | 67 | 1021.4 |
| 20260905165503 | 51 | 5 | 1.0 | 6.0 | 0.00 | 0.00 | 0.00 | 69 | 1020.1 |
| 20260905165434 | 51 | 263 | 2.0 | 6.0 | 0.00 | 0.00 | 0.00 | 69 | 1021.5 |
| 20260905165005 | 50 | 313 | 1.0 | 6.0 | 0.00 | 0.00 | 0.00 | 68 | 1020.1 |
| 20260905164928 | 51 | 313 | 2.0 | 6.0 | 0.00 | 0.00 | 0.00 | 69 | 1021.4 |
| 20260905164504 | 50 | 278 | 2.0 | 4.0 | 0.00 | 0.00 | 0.00 | 68 | 1020.1 |
| 20260905164422 | 51 | 278 | 2.0 | 4.0 | 0.00 | 0.00 | 0.00 | 69 | 1021.4 |
| 20260905164005 | 50 | 273 | 1.0 | 4.0 | 0.00 | 0.00 | 0.00 | 69 | 1020.1 |
| 20260905163916 | 51 | 295 | 2.0 | 4.0 | 0.00 | 0.00 | 0.00 | 70 | 1021.4 |
| 20260905163504 | 50 | 311 | 2.0 | 4.0 | 0.00 | 0.00 | 0.00 | 68 | 1020.0 |
| 20260905163410 | 51 | 293 | 3.0 | 4.0 | 0.00 | 0.00 | 0.00 | 69 | 1021.3 |
| 20260905163125 | 51 | 293 | 2.0 | 6.0 | 0.00 | 0.00 | 0.00 | 69 | 1021.3 |
| 20260905163013 | 51 | 297 | 2.0 | 6.0 | 0.00 | 0.00 | 0.00 | 69 | 1019.9 |
| 20260905162503 | 51 | 304 | 2.0 | 6.0 | 0.00 | 0.00 | 0.00 | 68 | 1019.9 |
| 20260905162358 | 52 | 313 | 1.0 | 6.0 | 0.00 | 0.00 | 0.00 | 68 | 1021.3 |
| 20260905162003 | 51 | 288 | 1.0 | 3.0 | 0.00 | 0.00 | 0.00 | 68 | 1019.9 |
| 20260905161852 | 52 | 269 | 0.0 | 3.0 | 0.00 | 0.00 | 0.00 | 69 | 1021.3 |
| 20260905161516 | 51 | 121 | 0.0 | 4.0 | 0.00 | 0.00 | 0.00 | 71 | 1019.9 |
| 20260905161346 | 51 | 121 | 1.0 | 4.0 | 0.00 | 0.00 | 0.00 | 74 | 1021.3 |
| 20260905161059 | 50 | 121 | 2.0 | 4.0 | 0.00 | 0.00 | 0.00 | 76 | 1021.4 |
| 20260905161010 | 50 | 121 | 0.0 | 4.0 | 0.00 | 0.00 | 0.00 | 76 | 1020.0 |
| 20260905160506 | 49 | 117 | 2.0 | 6.0 | 0.00 | 0.00 | 0.00 | 76 | 1019.9 |
| 20260905160335 | 49 | 121 | 2.0 | 6.0 | 0.00 | 0.00 | 0.00 | 77 | 1021.4 |
| 20260905160013 | 48 | 109 | 2.0 | 6.0 | 0.00 | 0.00 | 0.00 | 78 | 1019.9 |
| 20260905155827 | 49 | 115 | 2.0 | 6.0 | 0.00 | 0.00 | 0.00 | 79 | 1021.3 |
| 20260905155507 | 47 | 117 | 1.0 | 7.0 | 0.00 | 0.00 | 0.00 | 79 | 1019.9 |
| 20260905155322 | 47 | 115 | 3.0 | 7.0 | 0.00 | 0.00 | 0.00 | 82 | 1021.2 |
| 20260905155004 | 46 | 102 | 1.0 | 7.0 | 0.00 | 0.00 | 0.00 | 83 | 1019.8 |
| 20260905154815 | 46 | 120 | 3.0 | 7.0 | 0.00 | 0.00 | 0.00 | 86 | 1021.3 |
| 20260905154503 | 45 | 117 | 3.0 | 6.0 | 0.00 | 0.00 | 0.00 | 90 | 1019.8 |
| 20260905154310 | 45 | 107 | 2.0 | 6.0 | 0.00 | 0.00 | 0.00 | 93 | 1021.3 |
| 20260905154003 | 43 | 109 | 3.0 | 6.0 | 0.00 | 0.00 | 0.00 | 96 | 1019.9 |
| 20260905153804 | 44 | 105 | 1.0 | 6.0 | 0.00 | 0.00 | 0.00 | 96 | 1021.3 |
| 20260905153503 | 43 | 109 | 0.0 | 4.0 | 0.00 | 0.00 | 0.00 | 96 | 1019.9 |
| 20260905153258 | 44 | 109 | 0.0 | 0.0 | 0.00 | 0.00 | 0.00 | 96 | 1021.3 |
| 20260905153012 | 43 | 109 | 0.0 | 0.0 | 0.00 | 0.00 | 0.00 | 96 | 1019.9 |
| 20260905152752 | 43 | 109 | 0.0 | 0.0 | 0.00 | 0.00 | 0.00 | 96 | 1021.2 |
| 20260905152505 | 42 | 109 | 0.0 | 0.0 | 0.00 | 0.00 | 0.00 | 96 | 1019.9 |
| 20260905152246 | 42 | 108 | 0.0 | 0.0 | 0.00 | 0.00 | 0.00 | 96 | 1021.2 |
| 20260905152004 | 41 | 107 | 0.0 | 0.0 | 0.00 | 0.00 | 0.00 | 96 | 1019.8 |
| 20260905151740 | 41 | 109 | 0.0 | 0.0 | 0.00 | 0.00 | 0.00 | 96 | 1021.1 |
| 20260905151503 | 40 | 109 | 0.0 | 0.0 | 0.00 | 0.00 | 0.00 | 95 | 1019.8 |
| 20260905151233 | 40 | 109 | 0.0 | 0.0 | 0.00 | 0.00 | 0.00 | 96 | 1021.1 |
| 20260905151004 | 40 | 109 | 0.0 | 0.0 | 0.00 | 0.00 | 0.00 | 95 | 1019.8 |
| 20260905150948 | 40 | 109 | 0.0 | 0.0 | 0.00 | 0.00 | 0.00 | 96 | 1020.9 |
| 20260905150511 | 39 | 110 | 0.0 | 0.0 | 0.00 | 0.00 | 0.00 | 95 | 1019.7 |
| 20260905150222 | 39 | 110 | 0.0 | 0.0 | 0.00 | 0.00 | 0.00 | 96 | 1021.1 |
| 20260905150020 | 38 | 110 | 0.0 | 0.0 | 0.00 | 0.00 | 0.00 | 95 | 1019.8 |
| 20260905145716 | 38 | 110 | 0.0 | 0.0 | 0.00 | 0.00 | 0.00 | 95 | 1020.9 |
| 20260905145503 | 37 | 110 | 0.0 | 0.0 | 0.00 | 0.00 | 0.00 | 95 | 1019.8 |
| 20260905145210 | 38 | 110 | 0.0 | 0.0 | 0.00 | 0.00 | 0.00 | 95 | 1020.9 |
| 20260905145007 | 37 | 110 | 0.0 | 0.0 | 0.00 | 0.00 | 0.00 | 95 | 1019.8 |
| 20260905144704 | 37 | 110 | 0.0 | 0.0 | 0.00 | 0.00 | 0.00 | 95 | 1021.1 |
| 20260905144527 | 36 | 110 | 0.0 | 0.0 | 0.00 | 0.00 | 0.00 | 95 | 1019.8 |
| 20260905144158 | 37 | 110 | 0.0 | 0.0 | 0.00 | 0.00 | 0.00 | 95 | 1021.1 |
| 20260905144008 | 36 | 110 | 0.0 | 0.0 | 0.00 | 0.00 | 0.00 | 94 | 1019.8 |
| 20260905143652 | 36 | 110 | 0.0 | 0.0 | 0.00 | 0.00 | 0.00 | 95 | 1020.9 |
| 20260905143503 | 36 | 110 | 0.0 | 0.0 | 0.00 | 0.00 | 0.00 | 94 | 1019.8 |
| 20260905143146 | 36 | 110 | 0.0 | 0.0 | 0.00 | 0.00 | 0.00 | 94 | 1020.9 |
| 20260905143004 | 35 | 110 | 0.0 | 3.0 | 0.00 | 0.00 | 0.00 | 94 | 1019.8 |
| 20260905142640 | 35 | 110 | 0.0 | 3.0 | 0.00 | 0.00 | 0.00 | 94 | 1020.9 |
| 20260905142504 | 35 | 110 | 0.0 | 3.0 | 0.00 | 0.00 | 0.00 | 93 | 1019.7 |
| 20260905142134 | 35 | 110 | 0.0 | 3.0 | 0.00 | 0.00 | 0.00 | 94 | 1020.9 |
| 20260905142004 | 35 | 110 | 0.0 | 2.0 | 0.00 | 0.00 | 0.00 | 93 | 1019.7 |
| 20260905141628 | 35 | 110 | 0.0 | 2.0 | 0.00 | 0.00 | 0.00 | 93 | 1020.8 |
| 20260905141508 | 34 | 110 | 0.0 | 2.0 | 0.00 | 0.00 | 0.00 | 93 | 1019.6 |
| 20260905141122 | 35 | 110 | 0.0 | 2.0 | 0.00 | 0.00 | 0.00 | 93 | 1020.9 |
| 20260905141006 | 34 | 110 | 0.0 | 1.0 | 0.00 | 0.00 | 0.00 | 92 | 1019.6 |
| 20260905140623 | 35 | 110 | 0.0 | 0.0 | 0.00 | 0.00 | 0.00 | 92 | 1020.7 |
| 20260905140504 | 34 | 110 | 0.0 | 0.0 | 0.00 | 0.00 | 0.00 | 92 | 1019.6 |
| 20260905140120 | 35 | 110 | 0.0 | 0.0 | 0.00 | 0.00 | 0.00 | 92 | 1020.7 |
| 20260905140007 | 34 | 110 | 0.0 | 0.0 | 0.00 | 0.00 | 0.00 | 92 | 1019.6 |
| 20260905135618 | 35 | 110 | 0.0 | 0.0 | 0.00 | 0.00 | 0.00 | 92 | 1020.7 |
| 20260905135505 | 34 | 110 | 0.0 | 0.0 | 0.00 | 0.00 | 0.00 | 91 | 1019.5 |
| 20260905135118 | 35 | 110 | 0.0 | 0.0 | 0.00 | 0.00 | 0.00 | 91 | 1020.7 |
| 20260905135009 | 34 | 110 | 0.0 | 0.0 | 0.00 | 0.00 | 0.00 | 91 | 1019.4 |
| 20260905134528 | 34 | 110 | 0.0 | 0.0 | 0.00 | 0.00 | 0.00 | 91 | 1019.4 |
| 20260905134118 | 35 | 110 | 0.0 | 0.0 | 0.00 | 0.00 | 0.00 | 92 | 1020.7 |
| 20260905134008 | 35 | 110 | 0.0 | 0.0 | 0.00 | 0.00 | 0.00 | 91 | 1019.4 |
| 20260905133618 | 35 | 110 | 0.0 | 0.0 | 0.00 | 0.00 | 0.00 | 92 | 1020.6 |
| 20260905133510 | 35 | 110 | 0.0 | 0.0 | 0.00 | 0.00 | 0.00 | 91 | 1019.4 |
| 20260905133339 | 35 | 110 | 0.0 | 0.0 | 0.00 | 0.00 | 0.00 | 92 | 1020.6 |
| 20260905133024 | 35 | 110 | 0.0 | 0.0 | 0.00 | 0.00 | 0.00 | 91 | 1019.4 |
| 20260905132618 | 35 | 110 | 0.0 | 0.0 | 0.00 | 0.00 | 0.00 | 92 | 1020.6 |
| 20260905132504 | 35 | 110 | 0.0 | 0.0 | 0.00 | 0.00 | 0.00 | 91 | 1019.4 |
| 20260905132118 | 35 | 110 | 0.0 | 0.0 | 0.00 | 0.00 | 0.00 | 91 | 1020.6 |
| 20260905132008 | 35 | 110 | 0.0 | 0.0 | 0.00 | 0.00 | 0.00 | 91 | 1019.4 |
| 20260905131842 | 36 | 110 | 0.0 | 0.0 | 0.00 | 0.00 | 0.00 | 91 | 1020.6 |
| 20260905131528 | 35 | 110 | 0.0 | 0.0 | 0.00 | 0.00 | 0.00 | 91 | 1019.4 |
| 20260905131341 | 36 | 110 | 0.0 | 0.0 | 0.00 | 0.00 | 0.00 | 91 | 1020.6 |
| 20260905131004 | 35 | 110 | 0.0 | 0.0 | 0.00 | 0.00 | 0.00 | 91 | 1019.3 |
| 20260905130614 | 36 | 110 | 0.0 | 0.0 | 0.00 | 0.00 | 0.00 | 91 | 1020.5 |
| 20260905130504 | 35 | 110 | 0.0 | 0.0 | 0.00 | 0.00 | 0.00 | 91 | 1019.3 |
| 20260905130116 | 36 | 110 | 0.0 | 3.0 | 0.00 | 0.00 | 0.00 | 91 | 1020.5 |
| 20260905130014 | 36 | 110 | 0.0 | 3.0 | 0.00 | 0.00 | 0.00 | 91 | 1019.3 |
| 20260905125614 | 36 | 110 | 0.0 | 3.0 | 0.00 | 0.00 | 0.00 | 92 | 1020.6 |
| 20260905125507 | 36 | 110 | 0.0 | 3.0 | 0.00 | 0.00 | 0.00 | 91 | 1019.2 |
| 20260905125114 | 36 | 110 | 0.0 | 2.0 | 0.00 | 0.00 | 0.00 | 92 | 1020.5 |
| 20260905125007 | 36 | 110 | 0.0 | 2.0 | 0.00 | 0.00 | 0.00 | 91 | 1019.2 |
| 20260905124613 | 36 | 110 | 0.0 | 0.0 | 0.00 | 0.00 | 0.00 | 92 | 1020.4 |
| 20260905124520 | 36 | 110 | 0.0 | 0.0 | 0.00 | 0.00 | 0.00 | 92 | 1019.2 |
| 20260905124113 | 36 | 110 | 0.0 | 0.0 | 0.00 | 0.00 | 0.00 | 92 | 1020.5 |
| 20260905124009 | 36 | 110 | 0.0 | 0.0 | 0.00 | 0.00 | 0.00 | 92 | 1019.2 |
| 20260905123841 | 36 | 110 | 0.0 | 0.0 | 0.00 | 0.00 | 0.00 | 92 | 1020.5 |
| 20260905123508 | 36 | 110 | 0.0 | 0.0 | 0.00 | 0.00 | 0.00 | 92 | 1019.3 |
| 20260905123343 | 37 | 110 | 0.0 | 0.0 | 0.00 | 0.00 | 0.00 | 93 | 1020.5 |
| 20260905123015 | 36 | 110 | 0.0 | 0.0 | 0.00 | 0.00 | 0.00 | 92 | 1019.3 |
| 20260905122614 | 37 | 110 | 0.0 | 2.0 | 0.00 | 0.00 | 0.00 | 93 | 1020.6 |
| 20260905122511 | 36 | 110 | 0.0 | 2.0 | 0.00 | 0.00 | 0.00 | 92 | 1019.3 |
| 20260905122113 | 37 | 110 | 0.0 | 3.0 | 0.00 | 0.00 | 0.00 | 93 | 1020.5 |
| 20260905122012 | 36 | 110 | 0.0 | 3.0 | 0.00 | 0.00 | 0.00 | 92 | 1019.3 |
| 20260905121614 | 37 | 110 | 1.0 | 3.0 | 0.00 | 0.00 | 0.00 | 93 | 1020.6 |
| 20260905121525 | 36 | 110 | 0.0 | 3.0 | 0.00 | 0.00 | 0.00 | 92 | 1019.3 |
| 20260905121113 | 37 | 110 | 0.0 | 3.0 | 0.00 | 0.00 | 0.00 | 92 | 1020.5 |
| 20260905121008 | 36 | 110 | 1.0 | 3.0 | 0.00 | 0.00 | 0.00 | 91 | 1019.3 |
| 20260905120614 | 37 | 115 | 0.0 | 0.0 | 0.00 | 0.00 | 0.00 | 91 | 1020.5 |
| 20260905120512 | 36 | 115 | 0.0 | 0.0 | 0.00 | 0.00 | 0.00 | 91 | 1019.3 |
| 20260905120113 | 37 | 115 | 0.0 | 0.0 | 0.00 | 0.00 | 0.00 | 91 | 1020.6 |
| 20260905120027 | 36 | 115 | 0.0 | 0.0 | 0.00 | 0.00 | 0.00 | 91 | 1019.3 |
| 20260905115614 | 37 | 115 | 0.0 | 0.0 | 0.00 | 0.00 | 0.00 | 91 | 1020.6 |
| 20260905115505 | 36 | 115 | 0.0 | 1.0 | 0.00 | 0.00 | 0.00 | 91 | 1019.4 |
| 20260905115112 | 37 | 115 | 0.0 | 3.0 | 0.00 | 0.00 | 0.00 | 91 | 1020.5 |
| 20260905115008 | 36 | 115 | 0.0 | 3.0 | 0.00 | 0.00 | 0.00 | 91 | 1019.3 |
| 20260905114607 | 37 | 115 | 0.0 | 3.0 | 0.00 | 0.00 | 0.00 | 91 | 1020.6 |
| 20260905114512 | 36 | 114 | 0.0 | 3.0 | 0.00 | 0.00 | 0.00 | 91 | 1019.3 |
| 20260905114101 | 37 | 114 | 0.0 | 0.0 | 0.00 | 0.00 | 0.00 | 91 | 1020.5 |
| 20260905114006 | 37 | 114 | 0.0 | 0.0 | 0.00 | 0.00 | 0.00 | 90 | 1019.3 |
| 20260905113555 | 37 | 114 | 0.0 | 1.0 | 0.00 | 0.00 | 0.00 | 91 | 1020.5 |
| 20260905113509 | 37 | 114 | 0.0 | 1.0 | 0.00 | 0.00 | 0.00 | 90 | 1019.2 |
| 20260905113054 | 37 | 114 | 0.0 | 1.0 | 0.00 | 0.00 | 0.00 | 90 | 1020.5 |
| 20260905113018 | 37 | 114 | 0.0 | 1.0 | 0.00 | 0.00 | 0.00 | 90 | 1019.2 |
| 20260905112553 | 37 | 114 | 0.0 | 2.0 | 0.00 | 0.00 | 0.00 | 90 | 1020.5 |
| 20260905112508 | 37 | 114 | 0.0 | 2.0 | 0.00 | 0.00 | 0.00 | 89 | 1019.3 |
| 20260905112311 | 37 | 114 | 0.0 | 2.0 | 0.00 | 0.00 | 0.00 | 90 | 1020.6 |
| 20260905112010 | 37 | 114 | 0.0 | 2.0 | 0.00 | 0.00 | 0.00 | 90 | 1019.2 |
| 20260905111551 | 38 | 114 | 0.0 | 0.0 | 0.00 | 0.00 | 0.00 | 90 | 1020.5 |
| 20260905111532 | 37 | 114 | 0.0 | 0.0 | 0.00 | 0.00 | 0.00 | 89 | 1019.1 |
| 20260905111052 | 38 | 114 | 0.0 | 0.0 | 0.00 | 0.00 | 0.00 | 90 | 1020.5 |
| 20260905111011 | 37 | 114 | 0.0 | 0.0 | 0.00 | 0.00 | 0.00 | 89 | 1019.2 |
| 20260905110549 | 38 | 114 | 0.0 | 0.0 | 0.00 | 0.00 | 0.00 | 90 | 1020.5 |
| 20260905110514 | 37 | 114 | 0.0 | 0.0 | 0.00 | 0.00 | 0.00 | 90 | 1019.1 |
| 20260905110016 | 38 | 114 | 0.0 | 0.0 | 0.00 | 0.00 | 0.00 | 89 | 1019.1 |
| 20260905105547 | 38 | 114 | 0.0 | 0.0 | 0.00 | 0.00 | 0.00 | 90 | 1020.5 |
| 20260905105516 | 38 | 114 | 0.0 | 1.0 | 0.00 | 0.00 | 0.00 | 89 | 1019.3 |
| 20260905105048 | 38 | 114 | 0.0 | 3.0 | 0.00 | 0.00 | 0.00 | 90 | 1020.5 |
| 20260905105016 | 38 | 114 | 0.0 | 4.0 | 0.00 | 0.00 | 0.00 | 90 | 1019.2 |
| 20260905104546 | 39 | 114 | 0.0 | 4.0 | 0.00 | 0.00 | 0.00 | 90 | 1020.4 |
| 20260905104531 | 38 | 114 | 0.0 | 4.0 | 0.00 | 0.00 | 0.00 | 90 | 1019.1 |
| 20260905104045 | 39 | 114 | 0.0 | 4.0 | 0.00 | 0.00 | 0.00 | 90 | 1020.4 |
| 20260905104012 | 39 | 114 | 0.0 | 4.0 | 0.00 | 0.00 | 0.00 | 89 | 1019.1 |
| 20260905103546 | 39 | 114 | 0.0 | 4.0 | 0.00 | 0.00 | 0.00 | 90 | 1020.4 |
| 20260905103514 | 39 | 114 | 1.0 | 4.0 | 0.00 | 0.00 | 0.00 | 89 | 1019.1 |
| 20260905103044 | 39 | 118 | 0.0 | 2.0 | 0.00 | 0.00 | 0.00 | 89 | 1020.4 |
| 20260905103033 | 39 | 118 | 0.0 | 2.0 | 0.00 | 0.00 | 0.00 | 89 | 1019.1 |
| 20260905102805 | 40 | 118 | 0.0 | 2.0 | 0.00 | 0.00 | 0.00 | 89 | 1020.4 |
| 20260905102508 | 39 | 118 | 0.0 | 2.0 | 0.00 | 0.00 | 0.00 | 88 | 1019.1 |
| 20260905102041 | 40 | 118 | 0.0 | 2.0 | 0.00 | 0.00 | 0.00 | 89 | 1020.5 |
| 20260905102011 | 39 | 118 | 0.0 | 2.0 | 0.00 | 0.00 | 0.00 | 88 | 1019.2 |
| 20260905101542 | 40 | 118 | 0.0 | 3.0 | 0.00 | 0.00 | 0.00 | 89 | 1020.5 |
| 20260905101523 | 40 | 118 | 0.0 | 3.0 | 0.00 | 0.00 | 0.00 | 88 | 1019.2 |
| 20260905101008 | 40 | 118 | 0.0 | 3.0 | 0.00 | 0.00 | 0.00 | 88 | 1019.1 |
| 20260905100538 | 41 | 118 | 1.0 | 3.0 | 0.00 | 0.00 | 0.00 | 90 | 1020.4 |
| 20260905100508 | 40 | 118 | 0.0 | 3.0 | 0.00 | 0.00 | 0.00 | 89 | 1019.2 |
| 20260905100035 | 41 | 118 | 1.0 | 3.0 | 0.00 | 0.00 | 0.00 | 90 | 1020.5 |
| 20260905100025 | 40 | 118 | 0.0 | 3.0 | 0.00 | 0.00 | 0.00 | 89 | 1019.2 |
| 20260905095535 | 41 | 117 | 0.0 | 2.0 | 0.00 | 0.00 | 0.00 | 90 | 1020.5 |
| 20260905095511 | 41 | 117 | 0.0 | 2.0 | 0.00 | 0.00 | 0.00 | 89 | 1019.2 |
| 20260905095254 | 41 | 117 | 0.0 | 1.0 | 0.00 | 0.00 | 0.00 | 88 | 1020.4 |
| 20260905095018 | 41 | 117 | 0.0 | 1.0 | 0.00 | 0.00 | 0.00 | 88 | 1019.2 |
| 20260905094523 | 41 | 117 | 0.0 | 3.0 | 0.00 | 0.00 | 0.00 | 88 | 1019.1 |
| 20260905094015 | 42 | 117 | 1.0 | 4.0 | 0.00 | 0.00 | 0.00 | 89 | 1020.5 |
| 20260905093515 | 42 | 111 | 2.0 | 4.0 | 0.00 | 0.00 | 0.00 | 89 | 1019.2 |
| 20260905093509 | 42 | 111 | 2.0 | 4.0 | 0.00 | 0.00 | 0.00 | 90 | 1020.6 |
| 20260905093022 | 42 | 107 | 2.0 | 4.0 | 0.00 | 0.00 | 0.00 | 90 | 1019.2 |
| 20260905093003 | 42 | 101 | 2.0 | 4.0 | 0.00 | 0.00 | 0.00 | 90 | 1020.4 |
| 20260905092515 | 42 | 113 | 3.0 | 4.0 | 0.00 | 0.00 | 0.00 | 90 | 1019.2 |
| 20260905092456 | 42 | 113 | 2.0 | 4.0 | 0.00 | 0.00 | 0.00 | 90 | 1020.5 |
| 20260905092212 | 43 | 109 | 3.0 | 6.0 | 0.00 | 0.00 | 0.00 | 90 | 1020.4 |
| 20260905092018 | 42 | 109 | 1.0 | 6.0 | 0.00 | 0.00 | 0.00 | 89 | 1019.2 |
| 20260905091536 | 42 | 105 | 2.0 | 8.0 | 0.00 | 0.00 | 0.00 | 90 | 1019.2 |
| 20260905091013 | 42 | 114 | 4.0 | 9.0 | 0.00 | 0.00 | 0.00 | 89 | 1019.2 |
| 20260905090939 | 43 | 119 | 4.0 | 9.0 | 0.00 | 0.00 | 0.00 | 90 | 1020.4 |
| 20260905090508 | 42 | 112 | 3.0 | 9.0 | 0.00 | 0.00 | 0.00 | 90 | 1019.1 |
| 20260905090433 | 42 | 106 | 3.0 | 9.0 | 0.00 | 0.00 | 0.00 | 91 | 1020.4 |
| 20260905090146 | 42 | 115 | 3.0 | 6.0 | 0.00 | 0.00 | 0.00 | 90 | 1020.5 |
| 20260905090026 | 42 | 113 | 2.0 | 7.0 | 0.00 | 0.00 | 0.00 | 90 | 1019.1 |
| 20260905085510 | 42 | 101 | 3.0 | 6.0 | 0.00 | 0.00 | 0.00 | 90 | 1019.1 |
| 20260905085421 | 42 | 96 | 3.0 | 6.0 | 0.00 | 0.00 | 0.00 | 91 | 1020.4 |
| 20260905085015 | 42 | 113 | 2.0 | 4.0 | 0.00 | 0.00 | 0.00 | 90 | 1019.0 |
| 20260905084915 | 42 | 122 | 2.0 | 4.0 | 0.00 | 0.00 | 0.00 | 91 | 1020.3 |
| 20260905084530 | 42 | 114 | 1.0 | 6.0 | 0.00 | 0.00 | 0.00 | 90 | 1019.0 |
| 20260905084409 | 42 | 114 | 1.0 | 6.0 | 0.00 | 0.00 | 0.00 | 91 | 1020.3 |
| 20260905084016 | 42 | 116 | 0.0 | 6.0 | 0.00 | 0.00 | 0.00 | 90 | 1018.9 |
| 20260905083903 | 42 | 99 | 2.0 | 6.0 | 0.00 | 0.00 | 0.00 | 91 | 1020.3 |
| 20260905083504 | 42 | 114 | 1.0 | 6.0 | 0.00 | 0.00 | 0.00 | 92 | 1018.9 |
| 20260905083357 | 42 | 114 | 3.0 | 6.0 | 0.00 | 0.00 | 0.00 | 92 | 1020.3 |
| 20260905083008 | 42 | 119 | 3.0 | 7.0 | 0.00 | 0.00 | 0.00 | 92 | 1018.8 |
| 20260905082851 | 42 | 117 | 3.0 | 7.0 | 0.00 | 0.00 | 0.00 | 93 | 1020.3 |
| 20260905082503 | 41 | 112 | 2.0 | 7.0 | 0.00 | 0.00 | 0.00 | 91 | 1018.8 |
| 20260905082345 | 42 | 111 | 2.0 | 7.0 | 0.00 | 0.00 | 0.00 | 92 | 1020.1 |
| 20260905082005 | 41 | 107 | 1.0 | 6.0 | 0.00 | 0.00 | 0.00 | 90 | 1018.7 |
| 20260905081839 | 42 | 107 | 1.0 | 6.0 | 0.00 | 0.00 | 0.00 | 91 | 1020.1 |
| 20260905081511 | 41 | 110 | 0.0 | 1.0 | 0.00 | 0.00 | 0.00 | 90 | 1018.7 |
| 20260905081333 | 42 | 110 | 0.0 | 6.0 | 0.00 | 0.00 | 0.00 | 91 | 1020.1 |
| 20260905081003 | 41 | 110 | 0.0 | 6.0 | 0.00 | 0.00 | 0.00 | 91 | 1018.7 |
| 20260905080827 | 42 | 110 | 1.0 | 6.0 | 0.00 | 0.00 | 0.00 | 91 | 1020.1 |
| 20260905080507 | 41 | 114 | 2.0 | 6.0 | 0.00 | 0.00 | 0.00 | 91 | 1018.7 |
| 20260905080321 | 42 | 121 | 2.0 | 6.0 | 0.00 | 0.00 | 0.00 | 92 | 1020.1 |
| 20260905080019 | 41 | 111 | 1.0 | 6.0 | 0.00 | 0.00 | 0.00 | 92 | 1018.7 |
| 20260905075821 | 41 | 123 | 2.0 | 6.0 | 0.00 | 0.00 | 0.00 | 93 | 1020.1 |
| 20260905075504 | 41 | 110 | 2.0 | 4.0 | 0.00 | 0.00 | 0.00 | 92 | 1018.6 |
| 20260905075321 | 41 | 114 | 1.0 | 4.0 | 0.00 | 0.00 | 0.00 | 92 | 1020.1 |
| 20260905075004 | 40 | 155 | 0.0 | 4.0 | 0.00 | 0.00 | 0.00 | 91 | 1018.7 |
| 20260905074822 | 41 | 109 | 0.0 | 3.0 | 0.00 | 0.00 | 0.00 | 91 | 1020.3 |
| 20260905074524 | 40 | 109 | 0.0 | 6.0 | 0.00 | 0.00 | 0.00 | 91 | 1018.7 |
| 20260905074321 | 41 | 109 | 0.0 | 6.0 | 0.00 | 0.00 | 0.00 | 91 | 1020.1 |
| 20260905074011 | 40 | 105 | 0.0 | 6.0 | 0.00 | 0.00 | 0.00 | 91 | 1018.7 |
| 20260905073821 | 41 | 105 | 0.0 | 6.0 | 0.00 | 0.00 | 0.00 | 90 | 1020.3 |
| 20260905073505 | 40 | 104 | 0.0 | 4.0 | 0.00 | 0.00 | 0.00 | 90 | 1018.7 |
| 20260905073319 | 41 | 104 | 1.0 | 4.0 | 0.00 | 0.00 | 0.00 | 90 | 1020.3 |
| 20260905073018 | 40 | 104 | 0.0 | 4.0 | 0.00 | 0.00 | 0.00 | 90 | 1018.7 |
| 20260905072819 | 41 | 104 | 1.0 | 4.0 | 0.00 | 0.00 | 0.00 | 91 | 1020.4 |
| 20260905072504 | 40 | 103 | 0.0 | 4.0 | 0.00 | 0.00 | 0.00 | 90 | 1018.8 |
| 20260905072319 | 41 | 103 | 1.0 | 4.0 | 0.00 | 0.00 | 0.00 | 90 | 1020.3 |
| 20260905072035 | 41 | 111 | 0.0 | 0.0 | 0.00 | 0.00 | 0.00 | 89 | 1020.1 |
| 20260905072006 | 40 | 111 | 0.0 | 2.0 | 0.00 | 0.00 | 0.00 | 88 | 1018.7 |
| 20260905071507 | 40 | 111 | 0.0 | 0.0 | 0.00 | 0.00 | 0.00 | 88 | 1018.7 |
| 20260905071315 | 41 | 111 | 0.0 | 0.0 | 0.00 | 0.00 | 0.00 | 88 | 1020.3 |
| 20260905071006 | 40 | 111 | 0.0 | 0.0 | 0.00 | 0.00 | 0.00 | 88 | 1018.6 |
| 20260905070813 | 41 | 111 | 0.0 | 0.0 | 0.00 | 0.00 | 0.00 | 88 | 1020.1 |
| 20260905070508 | 41 | 111 | 0.0 | 1.0 | 0.00 | 0.00 | 0.00 | 88 | 1018.5 |
| 20260905070312 | 41 | 111 | 0.0 | 2.0 | 0.00 | 0.00 | 0.00 | 89 | 1020.1 |
| 20260905070033 | 41 | 111 | 0.0 | 3.0 | 0.00 | 0.00 | 0.00 | 89 | 1020.1 |
| 20260905070008 | 41 | 111 | 0.0 | 3.0 | 0.00 | 0.00 | 0.00 | 88 | 1018.5 |
| 20260905065509 | 41 | 111 | 0.0 | 3.0 | 0.00 | 0.00 | 0.00 | 89 | 1018.6 |
| 20260905065310 | 41 | 111 | 0.0 | 3.0 | 0.00 | 0.00 | 0.00 | 89 | 1020.1 |
| 20260905065009 | 41 | 111 | 0.0 | 0.0 | 0.00 | 0.00 | 0.00 | 88 | 1018.5 |
| 20260905064810 | 41 | 111 | 0.0 | 0.0 | 0.00 | 0.00 | 0.00 | 89 | 1020.0 |
| 20260905064525 | 41 | 111 | 0.0 | 0.0 | 0.00 | 0.00 | 0.00 | 88 | 1018.6 |
| 20260905064310 | 41 | 111 | 0.0 | 0.0 | 0.00 | 0.00 | 0.00 | 88 | 1020.3 |
| 20260905064005 | 41 | 111 | 0.0 | 0.0 | 0.00 | 0.00 | 0.00 | 87 | 1018.7 |
| 20260905063806 | 42 | 111 | 0.0 | 0.0 | 0.00 | 0.00 | 0.00 | 87 | 1020.3 |
| 20260905063507 | 41 | 111 | 0.0 | 0.0 | 0.00 | 0.00 | 0.00 | 86 | 1018.7 |
| 20260905063306 | 42 | 111 | 0.0 | 0.0 | 0.00 | 0.00 | 0.00 | 87 | 1020.1 |
| 20260905063026 | 41 | 111 | 0.0 | 0.0 | 0.00 | 0.00 | 0.00 | 87 | 1018.7 |
| 20260905062807 | 42 | 111 | 0.0 | 0.0 | 0.00 | 0.00 | 0.00 | 87 | 1020.1 |
| 20260905062506 | 41 | 111 | 0.0 | 0.0 | 0.00 | 0.00 | 0.00 | 87 | 1018.6 |
| 20260905062306 | 42 | 111 | 0.0 | 0.0 | 0.00 | 0.00 | 0.00 | 87 | 1020.1 |
| 20260905062008 | 42 | 111 | 0.0 | 0.0 | 0.00 | 0.00 | 0.00 | 86 | 1018.7 |
| 20260905061806 | 42 | 111 | 0.0 | 0.0 | 0.00 | 0.00 | 0.00 | 87 | 1020.1 |
| 20260905061535 | 42 | 111 | 0.0 | 0.0 | 0.00 | 0.00 | 0.00 | 87 | 1018.7 |
| 20260905061305 | 42 | 111 | 0.0 | 0.0 | 0.00 | 0.00 | 0.00 | 87 | 1020.0 |
| 20260905061012 | 42 | 111 | 0.0 | 0.0 | 0.00 | 0.00 | 0.00 | 87 | 1018.7 |
| 20260905060806 | 42 | 111 | 0.0 | 0.0 | 0.00 | 0.00 | 0.00 | 87 | 1020.3 |
| 20260905060503 | 42 | 111 | 0.0 | 0.0 | 0.00 | 0.00 | 0.00 | 87 | 1018.8 |
| 20260905060305 | 42 | 111 | 0.0 | 0.0 | 0.00 | 0.00 | 0.00 | 87 | 1020.1 |
| 20260905060013 | 42 | 111 | 0.0 | 0.0 | 0.00 | 0.00 | 0.00 | 87 | 1018.7 |
| 20260905055806 | 42 | 111 | 0.0 | 0.0 | 0.00 | 0.00 | 0.00 | 87 | 1020.1 |
| 20260905055509 | 42 | 111 | 0.0 | 0.0 | 0.00 | 0.00 | 0.00 | 87 | 1018.7 |
| 20260905055306 | 42 | 111 | 0.0 | 1.0 | 0.00 | 0.00 | 0.00 | 88 | 1020.0 |
| 20260905055008 | 42 | 111 | 0.0 | 1.0 | 0.00 | 0.00 | 0.00 | 88 | 1018.7 |
| 20260905054806 | 42 | 111 | 0.0 | 1.0 | 0.00 | 0.00 | 0.00 | 88 | 1020.0 |
| 20260905054522 | 42 | 111 | 0.0 | 1.0 | 0.00 | 0.00 | 0.00 | 88 | 1018.6 |
| 20260905054305 | 42 | 111 | 0.0 | 0.0 | 0.00 | 0.00 | 0.00 | 88 | 1020.0 |
| 20260905054009 | 42 | 111 | 0.0 | 0.0 | 0.00 | 0.00 | 0.00 | 88 | 1018.6 |
| 20260905053806 | 42 | 111 | 0.0 | 0.0 | 0.00 | 0.00 | 0.00 | 89 | 1020.0 |
| 20260905053528 | 42 | 111 | 0.0 | 4.0 | 0.00 | 0.00 | 0.00 | 89 | 1019.8 |
| 20260905053513 | 42 | 111 | 0.0 | 2.0 | 0.00 | 0.00 | 0.00 | 88 | 1018.6 |
| 20260905053017 | 42 | 111 | 0.0 | 4.0 | 0.00 | 0.00 | 0.00 | 89 | 1018.5 |
| 20260905052507 | 42 | 111 | 0.0 | 4.0 | 0.00 | 0.00 | 0.00 | 89 | 1018.6 |
| 20260905052306 | 42 | 106 | 0.0 | 4.0 | 0.00 | 0.00 | 0.00 | 89 | 1019.8 |
| 20260905052012 | 41 | 117 | 0.0 | 2.0 | 0.00 | 0.00 | 0.00 | 88 | 1018.6 |
| 20260905051806 | 42 | 117 | 0.0 | 2.0 | 0.00 | 0.00 | 0.00 | 89 | 1019.9 |
| 20260905051527 | 42 | 117 | 0.0 | 0.0 | 0.00 | 0.00 | 0.00 | 88 | 1019.9 |
| 20260905051008 | 41 | 117 | 0.0 | 0.0 | 0.00 | 0.00 | 0.00 | 88 | 1018.6 |
| 20260905050806 | 42 | 117 | 0.0 | 0.0 | 0.00 | 0.00 | 0.00 | 89 | 1020.0 |
| 20260905050513 | 41 | 117 | 0.0 | 0.0 | 0.00 | 0.00 | 0.00 | 88 | 1018.6 |
| 20260905050305 | 42 | 117 | 0.0 | 0.0 | 0.00 | 0.00 | 0.00 | 88 | 1020.0 |
| 20260905050031 | 41 | 117 | 0.0 | 0.0 | 0.00 | 0.00 | 0.00 | 87 | 1018.6 |
| 20260905045804 | 41 | 117 | 0.0 | 0.0 | 0.00 | 0.00 | 0.00 | 87 | 1020.0 |
| 20260905045504 | 41 | 117 | 0.0 | 0.0 | 0.00 | 0.00 | 0.00 | 87 | 1018.7 |
| 20260905045306 | 41 | 117 | 0.0 | 0.0 | 0.00 | 0.00 | 0.00 | 88 | 1020.0 |
| 20260905045008 | 41 | 117 | 0.0 | 0.0 | 0.00 | 0.00 | 0.00 | 86 | 1018.6 |
| 20260905044804 | 41 | 117 | 0.0 | 0.0 | 0.00 | 0.00 | 0.00 | 87 | 1020.0 |
| 20260905044509 | 41 | 117 | 0.0 | 0.0 | 0.00 | 0.00 | 0.00 | 86 | 1018.6 |
| 20260905044301 | 41 | 117 | 0.0 | 0.0 | 0.00 | 0.00 | 0.00 | 86 | 1019.9 |
| 20260905044008 | 41 | 117 | 0.0 | 0.0 | 0.00 | 0.00 | 0.00 | 86 | 1018.5 |
| 20260905043800 | 42 | 117 | 0.0 | 0.0 | 0.00 | 0.00 | 0.00 | 86 | 1020.0 |
| 20260905043506 | 41 | 117 | 0.0 | 0.0 | 0.00 | 0.00 | 0.00 | 85 | 1018.5 |
| 20260905043258 | 42 | 117 | 0.0 | 0.0 | 0.00 | 0.00 | 0.00 | 85 | 1020.0 |
| 20260905043018 | 42 | 117 | 0.0 | 0.0 | 0.00 | 0.00 | 0.00 | 84 | 1018.5 |
| 20260905042757 | 42 | 117 | 0.0 | 0.0 | 0.00 | 0.00 | 0.00 | 84 | 1020.0 |
| 20260905042511 | 42 | 117 | 0.0 | 0.0 | 0.00 | 0.00 | 0.00 | 84 | 1018.4 |
| 20260905042258 | 42 | 117 | 0.0 | 0.0 | 0.00 | 0.00 | 0.00 | 84 | 1019.9 |
| 20260905042012 | 42 | 117 | 0.0 | 0.0 | 0.00 | 0.00 | 0.00 | 83 | 1018.4 |
| 20260905041755 | 43 | 117 | 0.0 | 0.0 | 0.00 | 0.00 | 0.00 | 84 | 1019.8 |
| 20260905041527 | 42 | 117 | 0.0 | 0.0 | 0.00 | 0.00 | 0.00 | 83 | 1018.4 |
| 20260905041254 | 43 | 117 | 0.0 | 0.0 | 0.00 | 0.00 | 0.00 | 84 | 1019.8 |
| 20260905041011 | 43 | 117 | 0.0 | 0.0 | 0.00 | 0.00 | 0.00 | 83 | 1018.4 |
| 20260905040753 | 43 | 117 | 0.0 | 0.0 | 0.00 | 0.00 | 0.00 | 83 | 1019.7 |
| 20260905040517 | 43 | 117 | 0.0 | 0.0 | 0.00 | 0.00 | 0.00 | 83 | 1018.4 |
| 20260905040254 | 44 | 117 | 0.0 | 0.0 | 0.00 | 0.00 | 0.00 | 83 | 1019.7 |
| 20260905040016 | 43 | 117 | 0.0 | 0.0 | 0.00 | 0.00 | 0.00 | 82 | 1018.4 |
| 20260905035752 | 44 | 117 | 0.0 | 0.0 | 0.00 | 0.00 | 0.00 | 82 | 1019.8 |
| 20260905035511 | 43 | 117 | 0.0 | 0.0 | 0.00 | 0.00 | 0.00 | 81 | 1018.4 |
| 20260905035252 | 44 | 117 | 0.0 | 0.0 | 0.00 | 0.00 | 0.00 | 82 | 1019.7 |
| 20260905035014 | 44 | 117 | 0.0 | 0.0 | 0.00 | 0.00 | 0.00 | 80 | 1018.3 |
| 20260905034748 | 44 | 117 | 0.0 | 0.0 | 0.00 | 0.00 | 0.00 | 81 | 1019.7 |
| 20260905034531 | 44 | 117 | 0.0 | 0.0 | 0.00 | 0.00 | 0.00 | 80 | 1018.3 |
| 20260905034239 | 45 | 117 | 0.0 | 0.0 | 0.00 | 0.00 | 0.00 | 80 | 1019.7 |
| 20260905034011 | 45 | 117 | 0.0 | 0.0 | 0.00 | 0.00 | 0.00 | 80 | 1018.3 |
| 20260905033733 | 45 | 117 | 0.0 | 0.0 | 0.00 | 0.00 | 0.00 | 79 | 1019.6 |
| 20260905033512 | 45 | 117 | 0.0 | 0.0 | 0.00 | 0.00 | 0.00 | 79 | 1018.2 |
| 20260905033449 | 46 | 117 | 0.0 | 0.0 | 0.00 | 0.00 | 0.00 | 79 | 1019.6 |
| 20260905033034 | 45 | 117 | 0.0 | 0.0 | 0.00 | 0.00 | 0.00 | 79 | 1018.2 |
| 20260905032721 | 46 | 117 | 0.0 | 0.0 | 0.00 | 0.00 | 0.00 | 79 | 1019.7 |
| 20260905032505 | 46 | 117 | 0.0 | 0.0 | 0.00 | 0.00 | 0.00 | 79 | 1018.1 |
| 20260905032215 | 46 | 117 | 0.0 | 0.0 | 0.00 | 0.00 | 0.00 | 80 | 1019.7 |
| 20260905032012 | 46 | 117 | 0.0 | 0.0 | 0.00 | 0.00 | 0.00 | 78 | 1018.1 |
| 20260905031932 | 46 | 117 | 0.0 | 0.0 | 0.00 | 0.00 | 0.00 | 79 | 1019.6 |
| 20260905031521 | 46 | 117 | 0.0 | 0.0 | 0.00 | 0.00 | 0.00 | 77 | 1018.0 |
| 20260905031423 | 47 | 117 | 0.0 | 0.0 | 0.00 | 0.00 | 0.00 | 77 | 1019.6 |
| 20260905031011 | 46 | 117 | 0.0 | 0.0 | 0.00 | 0.00 | 0.00 | 77 | 1018.0 |
| 20260905030657 | 47 | 117 | 0.0 | 0.0 | 0.00 | 0.00 | 0.00 | 76 | 1019.3 |
| 20260905030507 | 46 | 117 | 0.0 | 0.0 | 0.00 | 0.00 | 0.00 | 75 | 1017.9 |
| 20260905030151 | 47 | 117 | 0.0 | 0.0 | 0.00 | 0.00 | 0.00 | 75 | 1019.2 |
| 20260905030026 | 47 | 117 | 0.0 | 1.0 | 0.00 | 0.00 | 0.00 | 74 | 1017.9 |
| 20260905025645 | 48 | 117 | 0.0 | 1.0 | 0.00 | 0.00 | 0.00 | 74 | 1019.1 |
| 20260905025512 | 47 | 117 | 0.0 | 1.0 | 0.00 | 0.00 | 0.00 | 73 | 1017.9 |
| 20260905025140 | 48 | 117 | 0.0 | 1.0 | 0.00 | 0.00 | 0.00 | 73 | 1019.2 |
| 20260905025016 | 48 | 117 | 0.0 | 1.0 | 0.00 | 0.00 | 0.00 | 73 | 1017.9 |
| 20260905024633 | 48 | 117 | 0.0 | 1.0 | 0.00 | 0.00 | 0.00 | 72 | 1019.2 |
| 20260905024529 | 48 | 117 | 0.0 | 1.0 | 0.00 | 0.00 | 0.00 | 72 | 1017.9 |
| 20260905024127 | 49 | 117 | 0.0 | 1.0 | 0.00 | 0.00 | 0.00 | 71 | 1019.0 |
| 20260905024013 | 48 | 117 | 0.0 | 1.0 | 0.00 | 0.00 | 0.00 | 71 | 1017.8 |
| 20260905023620 | 49 | 117 | 0.0 | 1.0 | 0.00 | 0.00 | 0.00 | 72 | 1019.0 |
| 20260905023515 | 49 | 117 | 0.0 | 1.0 | 0.00 | 0.00 | 0.00 | 72 | 1017.7 |
| 20260905023114 | 49 | 117 | 0.0 | 1.0 | 0.00 | 0.00 | 0.00 | 71 | 1019.0 |
| 20260905023020 | 49 | 117 | 0.0 | 1.0 | 0.00 | 0.00 | 0.00 | 70 | 1017.6 |
| 20260905022610 | 49 | 117 | 0.0 | 1.0 | 0.00 | 0.00 | 0.00 | 71 | 1018.9 |
| 20260905022515 | 49 | 117 | 0.0 | 1.0 | 0.00 | 0.00 | 0.00 | 70 | 1017.5 |
| 20260905022103 | 50 | 117 | 0.0 | 1.0 | 0.00 | 0.00 | 0.00 | 71 | 1018.9 |
| 20260905022014 | 49 | 117 | 0.0 | 1.0 | 0.00 | 0.00 | 0.00 | 70 | 1017.6 |
| 20260905021818 | 50 | 117 | 0.0 | 3.0 | 0.00 | 0.00 | 0.00 | 72 | 1018.9 |
| 20260905021537 | 50 | 117 | 0.0 | 3.0 | 0.00 | 0.00 | 0.00 | 71 | 1017.5 |
| 20260905021051 | 50 | 117 | 0.0 | 3.0 | 0.00 | 0.00 | 0.00 | 72 | 1018.8 |
| 20260905021009 | 50 | 117 | 0.0 | 3.0 | 0.00 | 0.00 | 0.00 | 71 | 1017.6 |
| 20260905020545 | 51 | 117 | 0.0 | 2.0 | 0.00 | 0.00 | 0.00 | 70 | 1018.8 |
| 20260905020510 | 50 | 117 | 0.0 | 2.0 | 0.00 | 0.00 | 0.00 | 70 | 1017.6 |
| 20260905020041 | 51 | 119 | 1.0 | 3.0 | 0.00 | 0.00 | 0.00 | 71 | 1018.9 |
| 20260905020010 | 50 | 119 | 0.0 | 3.0 | 0.00 | 0.00 | 0.00 | 70 | 1017.5 |
| 20260905015533 | 51 | 119 | 1.0 | 4.0 | 0.00 | 0.00 | 0.00 | 70 | 1018.9 |
| 20260905015507 | 51 | 119 | 1.0 | 4.0 | 0.00 | 0.00 | 0.00 | 69 | 1017.5 |
| 20260905015027 | 51 | 105 | 2.0 | 4.0 | 0.00 | 0.00 | 0.00 | 68 | 1018.9 |
| 20260905015015 | 51 | 98 | 0.0 | 7.0 | 0.00 | 0.00 | 0.00 | 68 | 1017.4 |
| 20260905014526 | 51 | 106 | 2.0 | 7.0 | 0.00 | 0.00 | 0.00 | 68 | 1017.4 |
| 20260905014521 | 52 | 104 | 2.0 | 7.0 | 0.00 | 0.00 | 0.00 | 69 | 1018.8 |
| 20260905014015 | 52 | 123 | 2.0 | 7.0 | 0.00 | 0.00 | 0.00 | 67 | 1018.7 |
| 20260905014007 | 51 | 124 | 3.0 | 7.0 | 0.00 | 0.00 | 0.00 | 67 | 1017.4 |
| 20260905013510 | 52 | 114 | 2.0 | 4.0 | 0.00 | 0.00 | 0.00 | 67 | 1017.4 |
| 20260905013508 | 52 | 114 | 2.0 | 4.0 | 0.00 | 0.00 | 0.00 | 67 | 1018.7 |
| 20260905013029 | 52 | 118 | 1.0 | 7.0 | 0.00 | 0.00 | 0.00 | 65 | 1017.3 |
| 20260905013004 | 52 | 118 | 2.0 | 7.0 | 0.00 | 0.00 | 0.00 | 65 | 1018.5 |
| 20260905012507 | 52 | 103 | 3.0 | 7.0 | 0.00 | 0.00 | 0.00 | 66 | 1017.3 |
| 20260905012458 | 53 | 111 | 2.0 | 7.0 | 0.00 | 0.00 | 0.00 | 66 | 1018.5 |
| 20260905012010 | 53 | 121 | 0.0 | 8.0 | 0.00 | 0.00 | 0.00 | 63 | 1017.2 |
| 20260905011950 | 53 | 138 | 2.0 | 8.0 | 0.00 | 0.00 | 0.00 | 63 | 1018.5 |
| 20260905011512 | 53 | 112 | 1.0 | 9.0 | 0.00 | 0.00 | 0.00 | 64 | 1017.3 |
| 20260905011444 | 53 | 112 | 3.0 | 9.0 | 0.00 | 0.00 | 0.00 | 64 | 1018.5 |
| 20260905011009 | 53 | 119 | 3.0 | 9.0 | 0.00 | 0.00 | 0.00 | 63 | 1017.1 |
| 20260905010938 | 53 | 112 | 4.0 | 9.0 | 0.00 | 0.00 | 0.00 | 64 | 1018.3 |
| 20260905010505 | 53 | 109 | 3.0 | 8.0 | 0.00 | 0.00 | 0.00 | 64 | 1017.1 |
| 20260905010433 | 54 | 40 | 3.0 | 8.0 | 0.00 | 0.00 | 0.00 | 64 | 1018.4 |
| 20260905010020 | 53 | 125 | 2.0 | 8.0 | 0.00 | 0.00 | 0.00 | 63 | 1017.1 |
| 20260905005927 | 54 | 108 | 3.0 | 10.0 | 0.00 | 0.00 | 0.00 | 63 | 1018.3 |
| 20260905005511 | 54 | 114 | 4.0 | 12.0 | 0.00 | 0.00 | 0.00 | 64 | 1017.0 |
| 20260905005421 | 54 | 105 | 6.0 | 12.0 | 0.00 | 0.00 | 0.00 | 65 | 1018.4 |
| 20260905005013 | 53 | 112 | 6.0 | 12.0 | 0.00 | 0.00 | 0.00 | 66 | 1016.9 |
| 20260905004915 | 54 | 115 | 4.0 | 12.0 | 0.00 | 0.00 | 0.00 | 67 | 1018.2 |
| 20260905004520 | 53 | 85 | 2.0 | 10.0 | 0.00 | 0.00 | 0.00 | 65 | 1016.9 |
| 20260905004409 | 53 | 107 | 2.0 | 7.0 | 0.00 | 0.00 | 0.00 | 65 | 1018.3 |
| 20260905004128 | 53 | 108 | 2.0 | 7.0 | 0.00 | 0.00 | 0.00 | 65 | 1018.2 |
| 20260905004014 | 53 | 113 | 3.0 | 7.0 | 0.00 | 0.00 | 0.00 | 65 | 1016.8 |
| 20260905003518 | 53 | 102 | 2.0 | 7.0 | 0.00 | 0.00 | 0.00 | 65 | 1016.8 |
| 20260905003357 | 53 | 99 | 3.0 | 6.0 | 0.00 | 0.00 | 0.00 | 66 | 1018.2 |
| 20260905003012 | 52 | 104 | 2.0 | 6.0 | 0.00 | 0.00 | 0.00 | 65 | 1016.8 |
| 20260905002851 | 53 | 112 | 3.0 | 7.0 | 0.00 | 0.00 | 0.00 | 66 | 1018.2 |
| 20260905002509 | 52 | 107 | 3.0 | 7.0 | 0.00 | 0.00 | 0.00 | 65 | 1016.8 |
| 20260905002345 | 53 | 101 | 2.0 | 7.0 | 0.00 | 0.00 | 0.00 | 66 | 1018.1 |
| 20260905002015 | 52 | 112 | 1.0 | 7.0 | 0.00 | 0.00 | 0.00 | 63 | 1016.8 |
| 20260905001839 | 53 | 119 | 1.0 | 6.0 | 0.00 | 0.00 | 0.00 | 64 | 1018.1 |
| 20260905001534 | 52 | 144 | 0.0 | 4.0 | 0.00 | 0.00 | 0.00 | 63 | 1016.7 |
| 20260905001333 | 53 | 144 | 2.0 | 6.0 | 0.00 | 0.00 | 0.00 | 64 | 1018.1 |
| 20260905001007 | 52 | 136 | 2.0 | 6.0 | 0.00 | 0.00 | 0.00 | 65 | 1016.8 |
| 20260905000827 | 53 | 130 | 1.0 | 6.0 | 0.00 | 0.00 | 0.00 | 66 | 1018.1 |
| 20260905000511 | 52 | 107 | 1.0 | 6.0 | 0.00 | 0.00 | 0.00 | 64 | 1016.8 |
| 20260905000321 | 53 | 113 | 1.0 | 4.0 | 0.00 | 0.00 | 0.00 | 64 | 1018.1 |
| 20260905000016 | 52 | 113 | 0.0 | 6.0 | 0.00 | 0.00 | 0.00 | 65 | 1016.7 |
| 20260904235816 | 53 | 113 | 1.0 | 6.0 | 0.00 | 0.00 | 0.00 | 65 | 1018.1 |
| 20260904235509 | 53 | 113 | 1.0 | 6.0 | 0.00 | 0.00 | 0.00 | 64 | 1016.8 |
| 20260904235309 | 53 | 106 | 1.0 | 6.0 | 0.00 | 0.00 | 0.00 | 64 | 1018.1 |
| 20260904235009 | 53 | 103 | 0.0 | 4.0 | 0.00 | 0.00 | 0.00 | 63 | 1016.8 |
| 20260904234803 | 53 | 103 | 1.0 | 4.0 | 0.00 | 0.00 | 0.00 | 64 | 1018.1 |
| 20260904234521 | 53 | 96 | 0.0 | 4.0 | 0.00 | 0.00 | 0.00 | 62 | 1016.8 |
| 20260904234257 | 53 | 96 | 1.0 | 4.0 | 0.00 | 0.00 | 0.00 | 61 | 1018.1 |
| 20260904234012 | 53 | 110 | 0.0 | 3.0 | 0.00 | 0.00 | 0.00 | 62 | 1016.8 |
| 20260904233751 | 53 | 111 | 0.0 | 0.0 | 0.00 | 0.00 | 0.00 | 61 | 1018.1 |
| 20260904233510 | 53 | 160 | 0.0 | 0.0 | 0.00 | 0.00 | 0.00 | 61 | 1016.7 |
| 20260904233245 | 53 | 129 | 0.0 | 0.0 | 0.00 | 0.00 | 0.00 | 63 | 1018.1 |
| 20260904233027 | 53 | 130 | 0.0 | 0.0 | 0.00 | 0.00 | 0.00 | 60 | 1016.6 |